Time;durP1;ratioP1;P1;durP2;ratioP2;P2;SDS_P1;SDS_P2;PMS_P1;PMS_P2;Temp;Humidity;BMP_temperature;BMP_pressure;BME280_temperature;BME280_humidity;BME280_pressure;Samples;Min_cycle;Max_cycle;Signal;HPM_P1;HPM_P2
2022/06/05 00:00:07;;;;;;;19.27;3.75;;;;;;;19.57;100.00;96537.16;5018951;28;20069;-68
2022/06/05 00:02:54;;;;;;;5.60;3.45;;;;;;;19.55;100.00;96542.38;5016369;28;20042;-68
2022/06/05 00:05:26;;;;;;;6.03;3.10;;;;;;;19.45;100.00;96539.41;5003148;28;20073;-67
2022/06/05 00:08:17;;;;;;;7.97;4.00;;;;;;;19.42;100.00;96523.59;5017095;28;20045;-68
2022/06/05 00:10:54;;;;;;;6.25;3.20;;;;;;;19.40;100.00;96526.00;5017078;28;20033;-67
2022/06/05 00:13:26;;;;;;;4.57;3.40;;;;;;;19.35;100.00;96528.53;4993514;28;20073;-69
2022/06/05 00:15:52;;;;;;;7.38;3.47;;;;;;;19.31;100.00;96522.25;5005412;28;20052;-69
2022/06/05 00:18:17;;;;;;;6.68;3.80;;;;;;;19.33;100.00;96517.84;5001783;28;20096;-68
2022/06/05 00:20:44;;;;;;;3.97;3.20;;;;;;;19.35;100.00;96518.19;5026385;28;20041;-68
2022/06/05 00:23:10;;;;;;;7.90;3.75;;;;;;;19.31;100.00;96509.16;5007444;28;20062;-69
2022/06/05 00:25:47;;;;;;;8.93;3.88;;;;;;;19.31;100.00;96502.81;5002085;28;20140;-67
2022/06/05 00:28:37;;;;;;;8.40;3.80;;;;;;;19.26;100.00;96509.66;5011804;28;20536;-67
2022/06/05 00:31:33;;;;;;;6.97;3.70;;;;;;;19.24;100.00;96507.31;4990147;28;20399;-67
2022/06/05 00:33:59;;;;;;;7.43;3.90;;;;;;;19.28;100.00;96504.44;4963361;28;20463;-67
2022/06/05 00:36:41;;;;;;;7.85;3.35;;;;;;;19.32;100.00;96505.19;4957246;28;20038;-67
2022/06/05 00:39:24;;;;;;;5.93;3.80;;;;;;;19.28;100.00;96501.69;4957744;28;20039;-67
2022/06/05 00:42:02;;;;;;;5.85;3.70;;;;;;;19.22;100.00;96506.94;4963306;28;20046;-67
2022/06/05 00:44:31;;;;;;;6.82;3.70;;;;;;;19.28;100.00;96518.34;4968397;28;20054;-67
2022/06/05 00:46:58;;;;;;;4.73;3.73;;;;;;;19.29;100.00;96519.91;5015516;28;20075;-68
2022/06/05 00:49:31;;;;;;;6.25;3.47;;;;;;;19.21;100.00;96508.19;5016647;28;20870;-67
2022/06/05 00:51:57;;;;;;;6.85;3.83;;;;;;;19.25;100.00;96502.56;5022160;28;20057;-68
2022/06/05 00:54:23;;;;;;;8.20;4.07;;;;;;;19.13;100.00;96497.66;5008373;28;20646;-67
2022/06/05 00:56:48;;;;;;;4.35;3.70;;;;;;;19.10;100.00;96499.28;5006090;28;20111;-70
2022/06/05 00:59:17;;;;;;;5.93;3.75;;;;;;;19.09;100.00;96492.94;4995773;28;20042;-69
2022/06/05 01:01:43;;;;;;;9.40;4.00;;;;;;;19.01;100.00;96480.41;5005187;28;20154;-69
2022/06/05 01:04:09;;;;;;;8.98;4.38;;;;;;;18.96;100.00;96461.50;5001937;28;20076;-69
2022/06/05 01:06:35;;;;;;;6.30;3.92;;;;;;;18.90;100.00;96450.09;5007241;28;20038;-68
2022/06/05 01:09:03;;;;;;;5.82;4.40;;;;;;;18.84;100.00;96439.97;5021404;28;20038;-67
2022/06/05 01:12:06;;;;;;;6.97;4.40;;;;;;;18.83;100.00;96447.47;5018198;28;20045;-69
2022/06/05 01:14:43;;;;;;;6.38;3.95;;;;;;;18.76;100.00;96444.81;5003436;28;20053;-69
2022/06/05 01:17:22;;;;;;;8.57;4.15;;;;;;;18.69;100.00;96436.63;4974396;28;20046;-69
2022/06/05 01:20:03;;;;;;;5.70;4.22;;;;;;;18.63;100.00;96427.25;4996798;28;20078;-66
2022/06/05 01:22:28;;;;;;;8.73;4.30;;;;;;;18.54;100.00;96425.06;5001612;28;20045;-69
2022/06/05 01:25:31;;;;;;;7.15;4.78;;;;;;;18.51;100.00;96404.50;5002015;28;20069;-69
2022/06/05 01:28:04;;;;;;;8.00;4.35;;;;;;;18.45;100.00;96395.09;5014335;28;20067;-69
2022/06/05 01:30:35;;;;;;;6.68;4.43;;;;;;;18.48;100.00;96394.25;5018023;28;20041;-69
2022/06/05 01:33:07;;;;;;;6.78;4.53;;;;;;;18.51;100.00;96396.19;5021201;28;20034;-69
2022/06/05 01:35:51;;;;;;;7.38;4.38;;;;;;;18.52;100.00;96399.75;5019549;28;20052;-70
2022/06/05 01:38:29;;;;;;;5.68;4.32;;;;;;;18.58;100.00;96400.78;4999978;28;20498;-67
2022/06/05 01:40:59;;;;;;;7.82;5.05;;;;;;;18.64;100.00;96399.09;5019449;28;20037;-69
2022/06/05 01:43:30;;;;;;;6.53;4.43;;;;;;;18.69;100.00;96390.28;5002509;28;20880;-70
2022/06/05 01:46:07;;;;;;;6.60;4.88;;;;;;;18.65;100.00;96391.56;5003830;28;20566;-68
2022/06/05 01:48:44;;;;;;;7.35;4.50;;;;;;;18.58;100.00;96386.94;5020776;28;20080;-64
2022/06/05 01:51:19;;;;;;;9.30;4.63;;;;;;;18.50;100.00;96394.63;5016548;28;20506;-64
2022/06/05 01:53:47;;;;;;;8.82;4.82;;;;;;;18.47;100.00;96381.59;5015123;28;20049;-65
2022/06/05 01:56:40;;;;;;;6.53;4.78;;;;;;;18.50;100.00;96368.88;4995295;28;20112;-65
2022/06/05 01:59:06;;;;;;;9.93;4.97;;;;;;;18.43;100.00;96369.81;4994230;28;20137;-64
2022/06/05 02:01:36;;;;;;;9.27;4.53;;;;;;;18.33;100.00;96360.50;5001212;28;20104;-65
2022/06/05 02:04:15;;;;;;;7.88;5.65;;;;;;;18.27;100.00;96347.56;5001205;28;20296;-66
2022/06/05 02:07:03;;;;;;;7.13;5.00;;;;;;;18.26;100.00;96334.91;5003944;28;20050;-65
2022/06/05 02:09:59;;;;;;;10.30;5.05;;;;;;;18.17;100.00;96321.63;4999355;28;20049;-65
2022/06/05 02:12:25;;;;;;;8.00;5.50;;;;;;;18.19;100.00;96310.88;5005180;28;20494;-64
2022/06/05 02:14:51;;;;;;;10.82;5.18;;;;;;;18.24;100.00;96304.84;5010777;28;20076;-63
2022/06/05 02:17:16;;;;;;;8.95;5.75;;;;;;;18.13;100.00;96287.63;4996254;28;20096;-65
2022/06/05 02:19:43;;;;;;;7.25;5.47;;;;;;;18.10;100.00;96282.97;5001951;28;20038;-64
2022/06/05 02:22:34;;;;;;;7.93;5.55;;;;;;;18.08;100.00;96271.53;5009840;28;20540;-64
2022/06/05 02:25:00;;;;;;;8.02;5.20;;;;;;;18.06;100.00;96282.22;5002360;28;20069;-64
2022/06/05 02:27:26;;;;;;;7.70;5.22;;;;;;;18.11;100.00;96281.72;4996308;28;20080;-65
2022/06/05 02:29:55;;;;;;;8.02;5.63;;;;;;;18.10;100.00;96280.19;5000095;28;20050;-65
2022/06/05 02:32:40;;;;;;;7.57;5.77;;;;;;;18.14;100.00;96286.44;4995918;28;20564;-63
2022/06/05 02:35:41;;;;;;;7.72;5.38;;;;;;;18.08;100.00;96290.94;4995459;28;20568;-64
2022/06/05 02:38:16;;;;;;;9.82;6.50;;;;;;;18.17;100.00;96284.78;5002009;28;20487;-64
2022/06/05 02:41:01;;;;;;;11.63;5.78;;;;;;;18.14;100.00;96292.75;5002759;28;20502;-66
2022/06/05 02:43:40;;;;;;;8.02;5.65;;;;;;;18.08;100.00;96291.69;5009844;28;20119;-64
2022/06/05 02:46:18;;;;;;;6.50;5.53;;;;;;;18.11;100.00;96281.72;4993523;28;20042;-65
2022/06/05 02:49:07;;;;;;;11.07;6.85;;;;;;;18.10;100.00;96274.66;5000118;28;20041;-65
2022/06/05 02:51:37;;;;;;;8.32;6.03;;;;;;;17.99;100.00;96268.50;4999373;28;20050;-65
2022/06/05 02:54:02;;;;;;;;;;;;;;;18.03;100.00;96249.84;4999461;28;20041;-64
2022/06/05 02:56:30;;;;;;;13.07;6.60;;;;;;;18.03;100.00;96239.53;4999027;28;19923;-64
2022/06/05 02:58:58;;;;;;;8.90;5.40;;;;;;;17.98;100.00;96220.63;5000620;28;20096;-65
2022/06/05 03:04:09;;;;;;;11.88;6.50;;;;;;;17.86;100.00;96191.63;4995433;28;20050;-64
2022/06/05 03:06:40;;;;;;;9.32;6.43;;;;;;;17.89;100.00;96189.97;5028965;28;20044;-65
2022/06/05 03:09:06;;;;;;;10.15;6.05;;;;;;;17.95;100.00;96188.25;5000915;28;20038;-64
2022/06/05 03:11:32;;;;;;;8.93;6.13;;;;;;;17.95;100.00;96202.09;5001191;28;20148;-65
2022/06/05 03:13:57;;;;;;;9.70;6.05;;;;;;;17.90;100.00;96200.63;4997954;28;20149;-65
2022/06/05 03:16:24;;;;;;;8.88;6.10;;;;;;;17.88;100.00;96202.25;4994603;28;20413;-66
2022/06/05 03:18:49;;;;;;;9.45;6.35;;;;;;;17.92;100.00;96198.19;4999359;28;20422;-65
2022/06/05 03:21:15;;;;;;;9.10;5.50;;;;;;;17.92;100.00;96195.44;5000483;28;20037;-66
2022/06/05 03:23:40;;;;;;;12.52;6.05;;;;;;;17.86;100.00;96199.91;5001755;28;20128;-65
2022/06/05 03:26:09;;;;;;;11.98;6.13;;;;;;;17.86;100.00;96201.88;4997232;28;20053;-64
2022/06/05 03:28:35;;;;;;;9.98;6.20;;;;;;;17.85;100.00;96201.13;5001929;28;20060;-65
2022/06/05 03:31:03;;;;;;;9.07;5.80;;;;;;;17.85;100.00;96203.88;5002308;28;20042;-66
2022/06/05 03:33:29;;;;;;;12.32;6.28;;;;;;;17.84;100.00;96193.19;4986325;28;20089;-65
2022/06/05 03:35:54;;;;;;;13.23;5.95;;;;;;;17.84;100.00;96193.97;5001141;28;20074;-66
2022/06/05 03:38:19;;;;;;;9.55;6.30;;;;;;;17.85;100.00;96195.56;4995520;28;20045;-63
2022/06/05 03:40:45;;;;;;;9.23;6.38;;;;;;;17.79;100.00;96188.97;4998596;28;20054;-65
2022/06/05 03:43:11;;;;;;;9.98;6.40;;;;;;;17.75;100.00;96189.03;4995625;28;20042;-66
2022/06/05 03:45:36;;;;;;;9.88;6.22;;;;;;;17.96;100.00;96193.34;4998624;28;20395;-66
2022/06/05 03:48:02;;;;;;;12.32;6.35;;;;;;;17.99;100.00;96190.94;4998365;28;20057;-66
2022/06/05 03:50:28;;;;;;;12.70;6.97;;;;;;;17.96;100.00;96187.03;4997839;28;20046;-66
2022/06/05 03:52:53;;;;;;;10.05;6.53;;;;;;;17.90;100.00;96192.31;5003511;28;20434;-65
2022/06/05 03:55:22;;;;;;;11.23;6.15;;;;;;;17.98;100.00;96190.16;4996842;28;20041;-64
2022/06/05 03:57:48;;;;;;;9.60;6.20;;;;;;;18.03;100.00;96186.91;5003271;28;20046;-66
2022/06/05 04:00:18;;;;;;;9.07;5.70;;;;;;;18.10;100.00;96186.75;4998650;28;20042;-66
2022/06/05 04:02:44;;;;;;;10.35;6.28;;;;;;;18.17;100.00;96199.66;5004698;28;20394;-66
2022/06/05 04:05:13;;;;;;;12.82;6.22;;;;;;;18.41;100.00;96205.09;4996718;28;20034;-63
2022/06/05 04:07:39;;;;;;;8.02;6.13;;;;;;;18.57;100.00;96202.34;5008319;28;20154;-65
2022/06/05 04:10:06;;;;;;;14.45;6.13;;;;;;;18.70;100.00;96205.97;4998211;28;20494;-65
2022/06/05 04:12:33;;;;;;;8.63;5.75;;;;;;;18.90;100.00;96211.47;5003196;28;20487;-65
2022/06/05 04:15:02;;;;;;;8.07;4.93;;;;;;;18.98;100.00;96209.31;5002624;28;20053;-66
2022/06/05 04:17:28;;;;;;;9.80;5.20;;;;;;;19.00;100.00;96223.53;5006932;28;20038;-65
2022/06/05 04:19:53;;;;;;;9.07;4.95;;;;;;;19.29;100.00;96212.50;5012506;28;20113;-66
2022/06/05 04:22:19;;;;;;;10.23;4.95;;;;;;;19.64;100.00;96217.53;5026203;28;20095;-66
2022/06/05 04:24:45;;;;;;;10.02;5.00;;;;;;;19.58;100.00;96211.75;5039487;28;20076;-65
2022/06/05 04:27:10;;;;;;;12.40;4.68;;;;;;;20.17;100.00;96218.06;5008271;28;20438;-65
2022/06/05 04:29:35;;;;;;;10.18;5.13;;;;;;;20.67;100.00;96228.94;5002477;28;20038;-66
2022/06/05 04:32:01;;;;;;;8.73;5.05;;;;;;;20.55;100.00;96256.28;5002553;28;20132;-65
2022/06/05 04:34:27;;;;;;;8.50;4.43;;;;;;;20.11;100.00;96336.56;4998629;28;20445;-66
2022/06/05 04:36:52;;;;;;;6.93;5.53;;;;;;;19.28;100.00;96437.81;5007385;28;20152;-65
2022/06/05 04:39:17;;;;;;;7.60;5.50;;;;;;;18.95;100.00;96440.50;5002929;28;20502;-65
2022/06/05 04:41:44;;;;;;;10.48;5.35;;;;;;;18.85;100.00;96470.06;5006790;28;20053;-64
2022/06/05 04:44:13;;;;;;;8.93;6.57;;;;;;;18.79;100.00;96491.13;4999018;28;20073;-64
2022/06/05 04:46:39;;;;;;;13.98;5.68;;;;;;;18.80;100.00;96517.69;5004868;28;20046;-65
2022/06/05 04:49:06;;;;;;;9.02;6.32;;;;;;;18.70;100.00;96522.22;5000226;28;20452;-62
2022/06/05 04:51:33;;;;;;;8.35;5.93;;;;;;;18.65;100.00;96524.69;5003539;28;20491;-66
2022/06/05 04:54:01;;;;;;;8.70;6.72;;;;;;;18.71;100.00;96545.97;5002788;28;20050;-66
2022/06/05 04:56:28;;;;;;;11.30;6.97;;;;;;;18.66;100.00;96549.25;4996371;28;20086;-64
2022/06/05 04:58:55;;;;;;;12.30;6.78;;;;;;;18.49;100.00;96553.91;5003881;28;20113;-65
2022/06/05 05:01:25;;;;;;;8.95;6.95;;;;;;;18.42;100.00;96556.81;4996065;28;20285;-64
2022/06/05 05:03:51;;;;;;;;;;;;;;;18.32;100.00;96541.13;5002736;28;20046;-65
2022/06/05 05:06:17;;;;;;;15.40;8.85;;;;;;;18.19;100.00;96568.66;5003421;28;19924;-65
2022/06/05 05:08:42;;;;;;;12.88;8.00;;;;;;;18.18;100.00;96591.25;5029535;28;20034;-63
2022/06/05 05:11:08;;;;;;;9.27;7.97;;;;;;;18.37;100.00;96568.38;5013963;28;20399;-63
2022/06/05 05:13:33;;;;;;;18.75;8.88;;;;;;;18.32;100.00;96521.72;5002792;28;20046;-66
2022/06/05 05:15:59;;;;;;;15.65;9.15;;;;;;;18.29;100.00;96517.00;4998694;28;20038;-66
2022/06/05 05:18:25;;;;;;;14.75;10.18;;;;;;;18.14;100.00;96577.44;4997823;28;20144;-65
2022/06/05 05:20:51;;;;;;;11.13;9.10;;;;;;;18.06;100.00;96579.53;5004818;28;20049;-66
2022/06/05 05:23:19;;;;;;;16.40;9.48;;;;;;;18.21;100.00;96574.56;5024136;28;20038;-64
2022/06/05 05:25:46;;;;;;;14.05;9.73;;;;;;;18.06;100.00;96515.00;5034120;28;20049;-64
2022/06/05 05:28:12;;;;;;;16.70;10.80;;;;;;;17.96;100.00;96397.63;5000896;28;20499;-63
2022/06/05 05:30:41;;;;;;;14.93;10.20;;;;;;;17.87;100.00;96370.44;5002386;28;20081;-66
2022/06/05 05:33:07;;;;;;;11.45;8.88;;;;;;;17.77;100.00;96365.84;5011050;28;20449;-65
2022/06/05 05:35:32;;;;;;;10.05;7.53;;;;;;;17.76;100.00;96345.69;5020468;28;20047;-64
2022/06/05 05:37:57;;;;;;;9.20;5.82;;;;;;;17.76;100.00;96323.53;5020785;28;20041;-66
2022/06/05 05:43:07;;;;;;;7.03;4.20;;;;;;;17.86;100.00;96307.16;4997637;28;20064;-66
2022/06/05 05:45:32;;;;;;;6.78;3.55;;;;;;;17.93;100.00;96331.94;5000933;28;20137;-65
2022/06/05 05:47:58;;;;;;;4.55;2.67;;;;;;;18.10;100.00;96341.16;5002621;28;20042;-65
2022/06/05 05:50:23;;;;;;;5.30;3.00;;;;;;;18.25;100.00;96370.16;4997804;28;20046;-65
2022/06/05 05:52:49;;;;;;;8.82;2.85;;;;;;;18.39;100.00;96396.06;5021549;28;20033;-65
2022/06/05 05:55:17;;;;;;;5.07;3.00;;;;;;;18.61;100.00;96440.78;4997499;28;20096;-64
2022/06/05 05:57:45;;;;;;;5.20;2.88;;;;;;;18.48;100.00;96519.03;5002261;28;20046;-63
2022/06/05 06:00:12;;;;;;;5.70;3.70;;;;;;;18.28;100.00;96546.72;4997703;28;20491;-65
2022/06/05 06:02:38;;;;;;;6.00;4.00;;;;;;;18.20;100.00;96556.34;5002718;28;20069;-65
2022/06/05 06:05:05;;;;;;;8.95;3.67;;;;;;;17.99;100.00;96578.84;5008971;28;20106;-62
2022/06/05 06:07:31;;;;;;;6.53;3.88;;;;;;;18.18;100.00;96597.56;5016895;28;20052;-65
2022/06/05 06:09:56;;;;;;;8.30;3.55;;;;;;;18.38;100.00;96591.31;5010190;28;20041;-65
2022/06/05 06:12:23;;;;;;;7.22;3.80;;;;;;;18.55;100.00;96595.81;4996937;28;20041;-64
2022/06/05 06:14:48;;;;;;;9.95;3.53;;;;;;;18.64;100.00;96593.25;5002374;28;20038;-65
2022/06/05 06:17:14;;;;;;;8.73;3.65;;;;;;;19.14;100.00;96602.72;4995192;28;20111;-65
2022/06/05 06:19:39;;;;;;;6.68;3.42;;;;;;;19.46;100.00;96607.63;5001425;28;20034;-65
2022/06/05 06:22:05;;;;;;;5.57;2.97;;;;;;;19.82;100.00;96598.56;5007909;28;20386;-62
2022/06/05 06:24:30;;;;;;;6.72;3.63;;;;;;;20.27;100.00;96604.72;5021338;28;20103;-65
2022/06/05 06:26:56;;;;;;;7.47;2.78;;;;;;;20.83;100.00;96606.56;5024207;28;20038;-64
2022/06/05 06:29:22;;;;;;;5.63;2.78;;;;;;;21.52;100.00;96600.75;5011639;28;20254;-65
2022/06/05 06:31:47;;;;;;;5.07;3.00;;;;;;;21.74;100.00;96603.69;5002125;28;20034;-66
2022/06/05 06:34:13;;;;;;;7.18;3.22;;;;;;;22.38;100.00;96592.56;4995800;28;20037;-65
2022/06/05 06:36:38;;;;;;;5.85;3.55;;;;;;;23.61;97.44;96580.81;5001005;28;20446;-66
2022/06/05 06:39:04;;;;;;;6.85;2.78;;;;;;;25.12;82.74;96589.56;4998546;28;20038;-63
2022/06/05 06:41:30;;;;;;;4.65;2.70;;;;;;;25.64;75.15;96602.94;5016716;28;20065;-65
2022/06/05 06:43:55;;;;;;;7.10;2.15;;;;;;;25.93;72.73;96603.25;5019706;28;20207;-65
2022/06/05 06:46:21;;;;;;;5.47;2.25;;;;;;;26.14;73.02;96600.66;5003472;28;20054;-64
2022/06/05 06:48:47;;;;;;;8.77;2.30;;;;;;;27.35;64.83;96604.38;5010080;28;20049;-64
2022/06/05 06:51:14;;;;;;;5.85;2.20;;;;;;;26.15;68.93;96604.28;5016251;28;20491;-65
2022/06/05 06:53:41;;;;;;;7.07;2.33;;;;;;;27.19;64.53;96607.59;4992329;28;20045;-65
2022/06/05 06:56:13;;;;;;;6.38;2.10;;;;;;;28.84;58.33;96606.34;4995415;28;20112;-65
2022/06/05 06:58:42;;;;;;;8.70;1.90;;;;;;;29.48;54.97;96601.75;5000633;28;20067;-65
2022/06/05 07:01:08;;;;;;;10.68;2.20;;;;;;;26.60;65.14;96606.09;4993432;28;20049;-64
2022/06/05 07:03:34;;;;;;;5.88;2.20;;;;;;;24.99;72.04;96614.94;5000161;28;20502;-65
2022/06/05 07:06:06;;;;;;;4.55;2.28;;;;;;;24.02;80.83;96613.22;5003166;28;20038;-64
2022/06/05 07:08:32;;;;;;;6.25;2.20;;;;;;;25.90;69.46;96606.19;5021450;28;20563;-65
2022/06/05 07:10:58;;;;;;;7.82;2.80;;;;;;;26.47;65.42;96608.31;5010250;28;20044;-64
2022/06/05 07:13:24;;;;;;;6.07;2.55;;;;;;;23.36;78.91;96615.25;4996406;28;20954;-65
2022/06/05 07:15:50;;;;;;;6.38;2.17;;;;;;;23.39;83.27;96611.53;5007108;28;20050;-64
2022/06/05 07:18:17;;;;;;;7.65;2.78;;;;;;;23.26;79.59;96606.81;5002486;28;20111;-64
2022/06/05 07:20:44;;;;;;;8.00;3.63;;;;;;;23.02;82.62;96598.03;5000801;28;20046;-64
2022/06/05 07:23:11;;;;;;;6.75;2.75;;;;;;;22.24;87.79;96590.22;4997014;28;20046;-65
2022/06/05 07:25:37;;;;;;;5.40;2.72;;;;;;;21.81;92.33;96588.78;5012541;28;20107;-64
2022/06/05 07:28:04;;;;;;;8.52;3.17;;;;;;;23.56;86.49;96595.38;4998913;28;20053;-63
2022/06/05 07:30:31;;;;;;;5.70;2.60;;;;;;;25.50;75.13;96593.19;4999753;28;20076;-65
2022/06/05 07:32:56;;;;;;;4.93;2.65;;;;;;;27.88;62.59;96599.97;5000413;28;20054;-66
2022/06/05 07:35:22;;;;;;;5.28;2.42;;;;;;;29.09;57.67;96611.28;4995600;28;20425;-66
2022/06/05 07:37:47;;;;;;;10.13;2.28;;;;;;;27.62;62.50;96620.22;5000688;28;20116;-65
2022/06/05 07:40:15;;;;;;;4.85;2.20;;;;;;;28.13;61.16;96615.50;4994655;28;20046;-64
2022/06/05 07:42:42;;;;;;;8.23;2.50;;;;;;;29.31;57.04;96613.59;4999018;28;20064;-65
2022/06/05 07:45:10;;;;;;;5.15;2.13;;;;;;;29.52;55.14;96613.59;4995528;28;20045;-65
2022/06/05 07:47:36;;;;;;;5.78;3.10;;;;;;;26.02;67.39;96615.66;5000611;28;20140;-64
2022/06/05 07:50:03;;;;;;;5.75;3.13;;;;;;;26.26;68.30;96624.19;5000186;28;20132;-65
2022/06/05 07:55:12;;;;;;;6.47;2.75;;;;;;;26.84;60.89;96596.91;5014579;28;20494;-65
2022/06/05 07:57:38;;;;;;;5.13;3.13;;;;;;;24.52;72.95;96596.44;5020039;28;20046;-63
2022/06/05 08:00:07;;;;;;;6.03;3.35;;;;;;;24.41;75.32;96596.09;5014965;28;20042;-63
2022/06/05 08:02:34;;;;;;;7.70;3.30;;;;;;;26.49;65.30;96595.38;4999509;28;20499;-67
2022/06/05 08:05:02;;;;;;;8.23;3.20;;;;;;;27.53;60.97;96595.00;5011910;28;20099;-65
2022/06/05 08:07:30;;;;;;;5.25;3.00;;;;;;;26.41;65.65;96590.56;5001616;28;20101;-63
2022/06/05 08:09:56;;;;;;;5.82;3.45;;;;;;;26.07;67.36;96584.16;5020361;28;20044;-63
2022/06/05 08:12:24;;;;;;;7.03;3.63;;;;;;;25.63;66.76;96578.97;5015002;28;21329;-63
2022/06/05 08:14:51;;;;;;;6.05;2.88;;;;;;;25.21;69.95;96585.19;5017456;28;20512;-64
2022/06/05 08:17:27;;;;;;;4.97;2.65;;;;;;;25.43;69.40;96580.25;4996389;28;20046;-65
2022/06/05 08:19:53;;;;;;;4.40;3.13;;;;;;;23.55;78.96;96579.81;5000818;28;20067;-64
2022/06/05 08:22:21;;;;;;;6.30;3.38;;;;;;;22.76;86.28;96590.94;5000998;28;20579;-64
2022/06/05 08:24:47;;;;;;;7.40;3.28;;;;;;;23.46;82.92;96589.72;5009449;28;20491;-63
2022/06/05 08:27:16;;;;;;;8.20;3.78;;;;;;;23.13;85.61;96591.31;4995570;28;20042;-63
2022/06/05 08:29:42;;;;;;;9.40;3.80;;;;;;;23.33;84.25;96583.41;4999241;28;20053;-63
2022/06/05 08:32:09;;;;;;;6.68;3.65;;;;;;;24.02;83.83;96585.25;4995299;28;20041;-64
2022/06/05 08:34:35;;;;;;;7.03;3.33;;;;;;;23.91;80.89;96586.88;5001633;28;20185;-63
2022/06/05 08:42:59;;;;;;;5.45;3.30;;;;;;;22.74;89.82;96596.22;5002641;28;20049;-64
2022/06/05 08:45:31;;;;;;;6.38;3.28;;;;;;;23.23;87.53;96590.94;4994474;28;20602;-63
2022/06/05 08:48:03;;;;;;;6.25;3.03;;;;;;;22.95;87.87;96581.50;5002875;28;20042;-63
2022/06/05 08:50:44;;;;;;;5.30;3.17;;;;;;;22.92;86.60;96588.00;5000723;28;20525;-63
2022/06/05 08:53:34;;;;;;;6.32;3.00;;;;;;;23.19;88.25;96597.88;5002327;28;20380;-63
2022/06/05 08:56:04;;;;;;;8.20;3.47;;;;;;;23.84;81.53;96596.31;5004651;28;20156;-64
2022/06/05 08:58:45;;;;;;;7.40;3.47;;;;;;;23.15;84.17;96586.81;5003913;28;20053;-62
2022/06/05 09:01:21;;;;;;;6.82;3.17;;;;;;;23.31;85.59;96582.31;5000103;28;20503;-63
2022/06/05 09:04:10;;;;;;;7.18;2.75;;;;;;;23.02;86.22;96592.44;5004586;28;20057;-62
2022/06/05 09:06:42;;;;;;;8.40;2.97;;;;;;;23.32;85.33;96587.44;5006066;28;20046;-64
2022/06/05 09:09:19;;;;;;;6.78;3.10;;;;;;;23.17;83.28;96591.97;5018692;28;20050;-62
2022/06/05 09:12:08;;;;;;;4.68;3.03;;;;;;;22.99;84.57;96587.75;5003486;28;20647;-63
2022/06/05 09:14:40;;;;;;;6.80;3.30;;;;;;;22.94;83.46;96571.59;5003392;28;20041;-62
2022/06/05 09:17:11;;;;;;;19.58;10.00;;;;;;;23.23;85.10;96579.75;4999163;28;20075;-62
2022/06/05 09:19:39;;;;;;;8.50;3.20;;;;;;;24.18;77.87;96580.63;5002804;28;20376;-63
2022/06/05 09:22:35;;;;;;;6.93;3.00;;;;;;;25.16;73.39;96581.00;5004687;28;20046;-63
2022/06/05 09:25:39;;;;;;;7.72;3.03;;;;;;;23.57;78.66;96586.53;5012532;28;20046;-63
2022/06/05 09:28:14;;;;;;;8.43;3.05;;;;;;;23.44;78.30;96577.41;4998543;28;20076;-63
2022/06/05 09:30:45;;;;;;;7.68;3.10;;;;;;;24.00;78.16;96561.75;5015757;28;20122;-63
2022/06/05 09:33:25;;;;;;;6.40;2.90;;;;;;;25.14;72.29;96563.91;5006987;28;20034;-65
2022/06/05 09:35:56;;;;;;;6.03;3.28;;;;;;;25.70;66.95;96559.00;5022720;28;20046;-63
2022/06/05 09:38:25;;;;;;;9.00;3.20;;;;;;;25.82;67.25;96554.44;5004120;28;20060;-63
2022/06/05 09:41:11;;;;;;;4.00;2.28;;;;;;;25.53;69.40;96556.56;5004989;28;20348;-63
2022/06/05 09:44:05;;;;;;;5.75;2.40;;;;;;;26.52;62.55;96557.13;5002488;28;20571;-64
2022/06/05 09:46:48;;;;;;;6.10;2.53;;;;;;;26.04;63.60;96554.25;5000947;28;20046;-64
2022/06/05 09:49:18;;;;;;;7.13;3.05;;;;;;;27.04;59.19;96557.72;4990712;28;20072;-64
2022/06/05 09:51:45;;;;;;;4.22;2.70;;;;;;;27.17;58.60;96560.31;5001091;28;20045;-64
2022/06/05 09:54:18;;;;;;;4.70;2.28;;;;;;;25.97;64.51;96560.97;5002547;28;20394;-64
2022/06/05 10:00:14;;;;;;;6.88;2.30;;;;;;;26.21;62.26;96552.59;4998652;28;20052;-64
2022/06/05 10:02:43;;;;;;;5.55;1.95;;;;;;;25.50;66.06;96545.50;5001351;28;20033;-63
2022/06/05 10:05:14;;;;;;;7.55;2.67;;;;;;;25.62;64.15;96547.31;4996169;28;20050;-63
2022/06/05 10:07:48;;;;;;;3.95;1.90;;;;;;;26.97;59.65;96549.66;5017919;28;20037;-65
2022/06/05 10:10:22;;;;;;;6.20;2.20;;;;;;;24.87;65.20;96542.25;5016257;28;20041;-64
2022/06/05 10:12:58;;;;;;;5.57;2.58;;;;;;;26.33;65.22;96531.97;5022144;28;20478;-64
2022/06/05 10:15:44;;;;;;;3.83;2.45;;;;;;;26.92;63.07;96536.31;5007732;28;20528;-64
2022/06/05 10:18:44;;;;;;;5.53;2.67;;;;;;;27.09;61.95;96545.06;4997885;28;20069;-65
2022/06/05 10:21:11;;;;;;;8.63;2.55;;;;;;;27.70;58.93;96544.66;4997471;28;20041;-63
2022/06/05 10:23:45;;;;;;;8.27;2.70;;;;;;;26.22;62.82;96534.53;5013764;28;20049;-63
2022/06/05 10:26:10;;;;;;;5.65;2.40;;;;;;;27.41;58.60;96539.81;5016529;28;20053;-63
2022/06/05 10:28:41;;;;;;;5.67;2.40;;;;;;;28.06;56.26;96534.25;5021728;28;20033;-62
2022/06/05 10:31:11;;;;;;;5.85;2.30;;;;;;;28.06;56.31;96553.19;4998445;28;20308;-63
2022/06/05 10:33:39;;;;;;;5.95;2.90;;;;;;;28.16;54.44;96541.34;5002153;28;20348;-62
2022/06/05 10:36:08;;;;;;;14.57;9.07;;;;;;;28.17;54.01;96540.06;4996882;28;20051;-60
2022/06/05 10:38:57;;;;;;;8.60;4.17;;;;;;;28.55;53.50;96537.56;5001898;28;20042;-63
2022/06/05 10:41:31;;;;;;;;;;;;;;;28.58;53.97;96537.34;4995758;28;20069;-62
2022/06/05 10:44:24;;;;;;;5.93;2.35;;;;;;;28.41;54.44;96533.47;5000364;28;19921;-64
2022/06/05 10:47:12;;;;;;;5.28;1.95;;;;;;;27.73;57.25;96551.34;4999412;28;20360;-64
2022/06/05 10:49:40;;;;;;;4.22;2.05;;;;;;;27.95;57.30;96546.13;4999018;28;20042;-64
2022/06/05 10:52:30;;;;;;;4.75;1.88;;;;;;;28.20;57.65;96544.72;4979930;28;20042;-63
2022/06/05 10:55:20;;;;;;;10.55;3.00;;;;;;;27.98;57.55;96558.44;5000840;28;20408;-66
2022/06/05 10:58:17;;;;;;;5.68;2.05;;;;;;;27.79;57.73;96553.00;5008253;28;20384;-63
2022/06/05 11:00:56;;;;;;;5.20;3.13;;;;;;;28.01;57.14;96549.78;4999871;28;20129;-63
2022/06/05 11:03:56;;;;;;;4.80;2.10;;;;;;;27.95;57.81;96545.34;4994458;28;20893;-64
2022/06/05 11:07:00;;;;;;;7.95;2.70;;;;;;;27.73;58.80;96540.88;5007467;28;20187;-63
2022/06/05 11:09:45;;;;;;;4.47;2.65;;;;;;;27.46;59.52;96550.38;5006259;28;20034;-63
2022/06/05 11:15:32;;;;;;;5.50;3.22;;;;;;;26.40;70.19;96542.06;4996439;28;20447;-62
2022/06/05 11:18:23;;;;;;;6.07;3.58;;;;;;;26.41;70.43;96545.66;5001900;28;20092;-62
2022/06/05 11:21:01;;;;;;;5.35;3.53;;;;;;;26.08;72.65;96535.22;5002407;28;20507;-62
2022/06/05 11:23:29;;;;;;;8.40;4.03;;;;;;;26.31;72.40;96528.84;5009380;28;20725;-63
2022/06/05 11:26:04;;;;;;;5.15;3.22;;;;;;;26.42;74.51;96527.56;5021232;28;20044;-63
2022/06/05 11:28:38;;;;;;;7.25;3.65;;;;;;;26.72;72.13;96539.69;5006016;28;20050;-65
2022/06/05 11:31:22;;;;;;;6.57;3.95;;;;;;;26.97;71.50;96532.03;5000897;28;20848;-62
2022/06/05 11:34:23;;;;;;;6.63;3.50;;;;;;;27.18;71.79;96541.38;4999387;28;20041;-63
2022/06/05 11:36:56;;;;;;;5.50;3.50;;;;;;;27.51;72.04;96543.28;5002349;28;20072;-64
2022/06/05 11:40:12;;;;;;;7.57;3.42;;;;;;;27.36;68.86;96543.28;4999345;28;20457;-64
2022/06/05 11:42:46;;;;;;;10.60;3.38;;;;;;;27.09;71.61;96547.88;4989730;28;20057;-63
2022/06/05 11:45:14;;;;;;;6.78;2.90;;;;;;;26.43;71.30;96554.38;4997949;28;20137;-63
2022/06/05 11:47:50;;;;;;;4.60;2.92;;;;;;;25.39;76.15;96571.22;5000995;28;20045;-63
2022/06/05 11:50:28;;;;;;;4.53;2.55;;;;;;;24.71;76.56;96594.50;4999619;28;20056;-64
2022/06/05 11:53:12;;;;;;;5.57;1.60;;;;;;;23.86;79.36;96599.47;5003597;28;20046;-64
2022/06/05 11:55:57;;;;;;;2.25;1.17;;;;;;;23.42;81.94;96597.44;5000532;28;20163;-64
2022/06/05 11:58:25;;;;;;;4.75;1.63;;;;;;;23.21;84.53;96615.75;5001282;28;20271;-64
2022/06/05 12:00:57;;;;;;;2.50;1.70;;;;;;;22.95;88.55;96609.44;5008473;28;20041;-62
2022/06/05 12:03:47;;;;;;;4.25;1.70;;;;;;;22.54;91.67;96577.72;4994400;28;20158;-62
2022/06/05 12:06:27;;;;;;;5.10;2.00;;;;;;;22.29;95.41;96572.94;4991046;28;20048;-62
2022/06/05 12:08:58;;;;;;;6.65;1.98;;;;;;;22.12;100.00;96549.94;5005808;28;20049;-63
2022/06/05 12:11:33;;;;;;;6.90;1.98;;;;;;;21.69;100.00;96554.06;4998178;28;20046;-63